Time;durP1;ratioP1;P1;durP2;ratioP2;P2;SDS_P1;SDS_P2;PMS_P1;PMS_P2;Temp;Humidity;BMP_temperature;BMP_pressure;BME280_temperature;BME280_humidity;BME280_pressure;Samples;Min_cycle;Max_cycle;Signal;HPM_P1;HPM_P2
2023/06/10 00:01:17;;;;;;;13.60;10.77;;;20.00;99.90;;;;;;5054325;28;20252;-79
2023/06/10 00:03:44;;;;;;;17.63;10.50;;;20.00;99.90;;;;;;5054479;28;20725;-79
2023/06/10 00:06:12;;;;;;;14.27;10.47;;;19.90;99.90;;;;;;5054726;28;20256;-79
2023/06/10 00:08:41;;;;;;;12.93;10.23;;;19.90;99.90;;;;;;5054296;28;20195;-78
2023/06/10 00:11:08;;;;;;;13.57;10.43;;;19.90;99.90;;;;;;5054139;28;20214;-79
2023/06/10 00:13:35;;;;;;;15.80;10.27;;;19.90;99.90;;;;;;5072183;28;20238;-79
2023/06/10 00:16:03;;;;;;;13.57;10.60;;;19.80;99.90;;;;;;5054393;28;20287;-78
2023/06/10 00:18:32;;;;;;;12.87;10.20;;;19.70;99.90;;;;;;4958149;28;20205;-79
2023/06/10 00:21:04;;;;;;;12.63;9.77;;;19.70;99.90;;;;;;4974293;28;20229;-79
2023/06/10 00:23:31;;;;;;;15.17;10.70;;;19.70;99.90;;;;;;4974187;28;20728;-79
2023/06/10 00:25:59;;;;;;;15.37;10.60;;;19.60;99.90;;;;;;4974402;28;20212;-79
2023/06/10 00:28:26;;;;;;;14.40;10.40;;;19.60;99.90;;;;;;4990514;28;20898;-79
2023/06/10 00:30:53;;;;;;;13.53;9.90;;;19.60;99.90;;;;;;4973898;28;20287;-79
2023/06/10 00:33:20;;;;;;;13.17;9.50;;;19.50;99.90;;;;;;4957957;28;20228;-79
2023/06/10 00:35:48;;;;;;;14.30;9.20;;;19.50;99.90;;;;;;4969683;28;20267;-79
2023/06/10 00:38:15;;;;;;;13.20;9.60;;;19.50;99.90;;;;;;5072060;28;20197;-80
2023/06/10 00:40:42;;;;;;;13.90;8.70;;;19.40;99.90;;;;;;5053848;28;20279;-78
2023/06/10 00:43:09;;;;;;;13.57;8.80;;;19.30;99.90;;;;;;5072292;28;20198;-79
2023/06/10 00:45:37;;;;;;;11.70;7.70;;;19.30;99.90;;;;;;5054111;28;20269;-79
2023/06/10 00:48:05;;;;;;;11.17;8.00;;;19.20;99.90;;;;;;5054153;28;20206;-79
2023/06/10 00:50:34;;;;;;;12.60;7.90;;;19.20;99.90;;;;;;5037681;28;20240;-78
2023/06/10 00:53:01;;;;;;;11.83;7.70;;;19.20;99.90;;;;;;5037161;28;20638;-79
2023/06/10 00:55:28;;;;;;;11.07;6.87;;;19.20;99.90;;;;;;5054309;28;20250;-79
2023/06/10 00:57:55;;;;;;;10.07;7.47;;;19.20;99.90;;;;;;5072051;28;20194;-79
2023/06/10 01:00:22;;;;;;;8.40;6.80;;;19.10;99.90;;;;;;5055845;28;20256;-79
2023/06/10 01:02:52;;;;;;;10.23;7.20;;;19.20;99.90;;;;;;5057676;28;20275;-78
2023/06/10 01:05:20;;;;;;;10.97;6.97;;;19.10;99.90;;;;;;5057640;28;20210;-79
2023/06/10 01:07:53;;;;;;;10.53;6.40;;;19.00;99.90;;;;;;5057767;28;20302;-79
2023/06/10 01:10:33;;;;;;;8.57;6.17;;;18.90;99.90;;;;;;5057884;28;20222;-80
2023/06/10 01:13:02;;;;;;;10.27;6.57;;;18.90;99.90;;;;;;5057398;28;20201;-80
2023/06/10 01:15:31;;;;;;;8.93;6.30;;;18.90;99.90;;;;;;5057991;28;20246;-79
2023/06/10 01:18:01;;;;;;;10.83;6.03;;;18.80;99.90;;;;;;5057702;28;20217;-78
2023/06/10 01:20:31;;;;;;;8.13;6.10;;;18.80;99.90;;;;;;5058155;28;20230;-79
2023/06/10 01:23:00;;;;;;;8.77;6.20;;;18.80;99.90;;;;;;5040768;28;20198;-79
2023/06/10 01:25:28;;;;;;;11.67;5.80;;;18.80;99.90;;;;;;5040860;28;20225;-79
2023/06/10 01:28:21;;;;;;;7.90;5.50;;;18.80;99.90;;;;;;5075594;28;20193;-79
2023/06/10 01:31:15;;;;;;;8.53;5.90;;;18.70;99.90;;;;;;4977235;28;20240;-79
2023/06/10 01:33:47;;;;;;;7.67;5.30;;;18.60;99.90;;;;;;4993530;28;20220;-78
2023/06/10 01:36:16;;;;;;;8.23;5.70;;;18.60;99.90;;;;;;4976919;28;20225;-79
2023/06/10 01:38:44;;;;;;;7.27;5.33;;;18.60;99.90;;;;;;4977392;28;20287;-79
2023/06/10 01:41:17;;;;;;;8.00;5.73;;;18.60;99.90;;;;;;4993507;28;20324;-79
2023/06/10 01:43:45;;;;;;;8.50;5.50;;;18.50;99.90;;;;;;4993194;28;20247;-78
2023/06/10 01:46:12;;;;;;;8.60;5.73;;;18.40;99.90;;;;;;4976679;28;20696;-79
2023/06/10 01:48:42;;;;;;;8.83;6.27;;;18.40;99.90;;;;;;4993026;28;20207;-79
2023/06/10 01:51:09;;;;;;;15.83;6.20;;;18.40;99.90;;;;;;4976637;28;20315;-78
2023/06/10 01:53:36;;;;;;;10.63;5.37;;;18.30;99.90;;;;;;4976805;28;20244;-79
2023/06/10 01:56:03;;;;;;;7.40;5.00;;;18.30;99.90;;;;;;4992432;28;20217;-79
2023/06/10 01:58:30;;;;;;;7.67;4.97;;;18.20;99.90;;;;;;4960361;28;20209;-80
2023/06/10 02:00:58;;;;;;;8.33;5.30;;;18.10;99.90;;;;;;4992674;28;20231;-80
2023/06/10 02:03:25;;;;;;;9.27;5.37;;;18.10;99.90;;;;;;4976670;28;20259;-79
2023/06/10 02:05:53;;;;;;;12.23;5.47;;;18.10;99.90;;;;;;4993020;28;20299;-79
2023/06/10 02:08:19;;;;;;;8.70;5.17;;;17.90;99.90;;;;;;5037306;28;20351;-79
2023/06/10 02:10:46;;;;;;;9.83;5.07;;;17.90;99.90;;;;;;5073891;28;20202;-79
2023/06/10 02:13:13;;;;;;;8.83;5.17;;;18.00;99.90;;;;;;5056387;28;20650;-79
2023/06/10 02:15:40;;;;;;;8.57;5.20;;;17.90;99.90;;;;;;5056357;28;20245;-79
2023/06/10 02:18:07;;;;;;;8.43;4.73;;;17.90;99.90;;;;;;5056790;28;20204;-79
2023/06/10 02:20:35;;;;;;;6.67;4.70;;;17.90;99.90;;;;;;5056211;28;20221;-79
2023/06/10 02:23:01;;;;;;;8.63;4.60;;;17.90;99.90;;;;;;5039104;28;20319;-79
2023/06/10 02:25:29;;;;;;;9.73;4.70;;;17.90;99.90;;;;;;5073929;28;20198;-79
2023/06/10 02:27:56;;;;;;;9.53;4.50;;;17.90;99.90;;;;;;5074026;28;20194;-79
2023/06/10 02:30:23;;;;;;;8.83;4.67;;;17.80;99.90;;;;;;5056146;28;20309;-79
2023/06/10 02:32:50;;;;;;;9.63;4.27;;;17.90;99.90;;;;;;5055870;28;20222;-78
2023/06/10 02:35:17;;;;;;;10.17;4.53;;;17.90;99.90;;;;;;5055874;28;20225;-79
2023/06/10 02:37:44;;;;;;;8.87;4.53;;;17.80;99.90;;;;;;5039812;28;20248;-79
2023/06/10 02:40:11;;;;;;;9.47;4.40;;;17.80;99.90;;;;;;5073972;28;20256;-79
2023/06/10 02:42:38;;;;;;;10.73;4.60;;;17.70;99.90;;;;;;5056067;28;20198;-79
2023/06/10 02:45:06;;;;;;;9.70;4.40;;;17.60;99.90;;;;;;5055850;28;20214;-79
2023/06/10 02:47:33;;;;;;;9.00;4.30;;;17.60;99.90;;;;;;5056116;28;20198;-79
2023/06/10 02:50:00;;;;;;;6.63;4.20;;;17.60;99.90;;;;;;5055868;28;20700;-79
2023/06/10 02:52:27;;;;;;;8.83;4.60;;;17.60;99.90;;;;;;5073979;28;20556;-80
2023/06/10 02:54:54;;;;;;;12.43;4.13;;;17.60;99.90;;;;;;5073533;28;20222;-79
2023/06/10 02:57:21;;;;;;;8.77;4.80;;;17.60;99.90;;;;;;5055490;28;20244;-78
2023/06/10 02:59:48;;;;;;;9.30;4.67;;;17.60;99.90;;;;;;5055537;28;20241;-79
2023/06/10 03:02:15;;;;;;;11.90;4.80;;;17.60;99.90;;;;;;5055114;28;20784;-80
2023/06/10 03:04:43;;;;;;;8.57;4.47;;;17.60;99.90;;;;;;5038798;28;20210;-80
2023/06/10 03:07:11;;;;;;;6.47;4.23;;;17.60;99.90;;;;;;5055056;28;20264;-80
2023/06/10 03:09:38;;;;;;;8.73;4.70;;;17.70;99.90;;;;;;5071978;28;20239;-79
2023/06/10 03:12:05;;;;;;;7.00;4.50;;;17.70;99.90;;;;;;5055236;28;20229;-80
2023/06/10 03:14:34;;;;;;;8.20;4.20;;;17.60;99.90;;;;;;5073029;28;20238;-80
2023/06/10 03:17:01;;;;;;;8.37;4.60;;;17.70;99.90;;;;;;5038726;28;20224;-80
2023/06/10 03:19:28;;;;;;;7.30;4.13;;;17.70;99.90;;;;;;5055456;28;20670;-80
2023/06/10 03:22:11;;;;;;;6.80;4.67;;;17.70;99.90;;;;;;5072735;28;20608;-80
2023/06/10 03:24:39;;;;;;;8.43;4.23;;;17.70;99.90;;;;;;5055293;28;20323;-79
2023/06/10 03:27:08;;;;;;;8.57;4.37;;;17.70;99.90;;;;;;5055489;28;20182;-79
2023/06/10 03:29:35;;;;;;;7.73;4.60;;;17.70;99.90;;;;;;5038783;28;20690;-79
2023/06/10 03:32:02;;;;;;;10.33;4.10;;;17.70;99.90;;;;;;5073161;28;20672;-79
2023/06/10 03:34:29;;;;;;;12.37;4.73;;;17.70;99.90;;;;;;5054557;28;20676;-79
2023/06/10 03:36:57;;;;;;;10.00;4.10;;;17.80;99.90;;;;;;5072780;28;20190;-79
2023/06/10 03:39:25;;;;;;;6.83;4.20;;;17.90;99.90;;;;;;5054396;28;20229;-78
2023/06/10 03:41:52;;;;;;;11.07;4.87;;;17.90;99.90;;;;;;5054931;28;20232;-79
2023/06/10 03:44:19;;;;;;;7.33;4.30;;;18.00;99.90;;;;;;5072757;28;20234;-80
2023/06/10 03:46:47;;;;;;;7.37;4.50;;;18.10;99.90;;;;;;5072832;28;20546;-79
2023/06/10 03:49:14;;;;;;;8.67;4.33;;;18.10;99.90;;;;;;5072928;28;20202;-79
2023/06/10 03:51:41;;;;;;;13.53;4.80;;;18.20;99.90;;;;;;5072937;28;20213;-79
2023/06/10 03:54:08;;;;;;;7.50;4.37;;;18.20;99.90;;;;;;5054664;28;20308;-79
2023/06/10 03:56:35;;;;;;;9.37;4.40;;;18.20;99.90;;;;;;5055092;28;20298;-79
2023/06/10 03:59:02;;;;;;;6.50;3.70;;;18.20;99.90;;;;;;5054586;28;20703;-79
2023/06/10 04:01:29;;;;;;;7.63;4.00;;;18.20;99.90;;;;;;5054845;28;20692;-79
2023/06/10 04:03:56;;;;;;;7.83;4.20;;;18.30;99.90;;;;;;5072401;28;20190;-78
2023/06/10 04:06:25;;;;;;;8.33;4.20;;;18.30;99.90;;;;;;5054586;28;20214;-79
2023/06/10 04:08:52;;;;;;;7.57;4.37;;;18.30;99.90;;;;;;5055174;28;20558;-78
2023/06/10 04:11:19;;;;;;;8.50;4.30;;;18.30;99.90;;;;;;5072750;28;20316;-79
2023/06/10 04:13:48;;;;;;;7.57;4.20;;;18.40;99.90;;;;;;5072245;28;20186;-79
2023/06/10 04:16:16;;;;;;;8.13;4.57;;;18.40;99.90;;;;;;5054488;28;20242;-79
2023/06/10 04:18:44;;;;;;;7.40;4.17;;;18.50;99.90;;;;;;5072137;28;20573;-79
2023/06/10 04:21:11;;;;;;;7.87;4.30;;;18.60;99.90;;;;;;5054132;28;20218;-78
2023/06/10 04:23:38;;;;;;;8.63;4.17;;;18.50;99.90;;;;;;5054949;28;20209;-79
2023/06/10 04:26:06;;;;;;;7.53;4.37;;;18.50;99.90;;;;;;5054018;28;20715;-79
2023/06/10 04:28:33;;;;;;;7.43;4.07;;;18.50;99.90;;;;;;5037595;28;20244;-79
2023/06/10 04:31:00;;;;;;;9.60;4.77;;;18.50;99.90;;;;;;5072556;28;20210;-78
2023/06/10 04:33:28;;;;;;;8.20;4.47;;;18.50;99.90;;;;;;5073242;28;20194;-79
2023/06/10 04:35:55;;;;;;;7.67;4.20;;;18.50;99.90;;;;;;5076489;28;20596;-79
2023/06/10 04:38:22;;;;;;;9.40;4.17;;;18.50;99.90;;;;;;5058494;28;20200;-79
2023/06/10 04:40:49;;;;;;;6.53;4.23;;;18.60;99.90;;;;;;5075528;28;20308;-78
2023/06/10 04:43:16;;;;;;;11.27;4.60;;;18.60;99.90;;;;;;5058609;28;20204;-79
2023/06/10 04:45:46;;;;;;;8.60;4.33;;;18.70;99.90;;;;;;5041532;28;20221;-78
2023/06/10 04:48:13;;;;;;;7.17;3.97;;;18.70;99.90;;;;;;5058166;28;20194;-79
2023/06/10 04:50:40;;;;;;;8.37;4.20;;;18.70;99.90;;;;;;5057828;28;20267;-78
2023/06/10 04:53:08;;;;;;;8.00;4.37;;;18.70;99.90;;;;;;5058118;28;20259;-79
2023/06/10 04:55:36;;;;;;;7.67;4.30;;;18.70;99.90;;;;;;5058056;28;20226;-78
2023/06/10 04:58:03;;;;;;;8.30;4.20;;;18.70;99.90;;;;;;5040990;28;20302;-79
2023/06/10 05:00:29;;;;;;;8.80;4.30;;;18.70;99.90;;;;;;5074438;28;20267;-79
2023/06/10 05:02:56;;;;;;;7.03;4.47;;;18.80;99.90;;;;;;5041313;28;20263;-79
2023/06/10 05:05:23;;;;;;;9.50;4.20;;;18.80;99.90;;;;;;5075672;28;20214;-79
2023/06/10 05:07:51;;;;;;;6.87;4.40;;;18.80;99.90;;;;;;5058001;28;20556;-79
2023/06/10 05:10:18;;;;;;;9.43;4.27;;;18.90;99.90;;;;;;5057934;28;20218;-79
2023/06/10 05:12:46;;;;;;;9.40;4.17;;;18.90;99.90;;;;;;5074124;28;20198;-79
2023/06/10 05:15:13;;;;;;;8.13;4.20;;;19.00;99.90;;;;;;4980632;28;20243;-79
2023/06/10 05:17:40;;;;;;;6.70;4.20;;;19.10;99.90;;;;;;4996899;28;20204;-80
2023/06/10 05:20:08;;;;;;;8.37;4.33;;;19.10;99.90;;;;;;4981071;28;20704;-81
2023/06/10 05:22:35;;;;;;;7.20;4.23;;;19.00;99.90;;;;;;4996960;28;20689;-81
2023/06/10 05:25:02;;;;;;;9.60;4.50;;;19.20;99.90;;;;;;4996479;28;20604;-80
2023/06/10 05:27:29;;;;;;;12.00;4.33;;;19.30;99.90;;;;;;4996728;28;20310;-80
2023/06/10 05:29:56;;;;;;;8.33;4.40;;;19.20;99.90;;;;;;5013123;28;20294;-80
2023/06/10 05:32:23;;;;;;;12.07;4.43;;;19.30;99.90;;;;;;5018961;28;20656;-80
2023/06/10 05:34:50;;;;;;;8.17;4.10;;;19.30;99.90;;;;;;5056764;28;20226;-80
2023/06/10 05:37:17;;;;;;;8.70;4.17;;;19.30;99.90;;;;;;5057245;28;20226;-80
2023/06/10 05:39:44;;;;;;;6.80;4.17;;;19.30;99.90;;;;;;5075150;28;20241;-80
2023/06/10 05:42:11;;;;;;;7.27;4.10;;;19.50;99.90;;;;;;5075145;28;20217;-80
2023/06/10 05:44:38;;;;;;;8.10;3.90;;;19.50;99.90;;;;;;5056627;28;20628;-80
2023/06/10 05:47:06;;;;;;;9.67;4.30;;;19.60;99.90;;;;;;5074338;28;20194;-82
2023/06/10 05:49:33;;;;;;;8.27;4.20;;;19.60;99.90;;;;;;5057041;28;20689;-80
2023/06/10 05:52:00;;;;;;;8.60;4.23;;;19.70;99.90;;;;;;5075025;28;20276;-80
2023/06/10 05:54:27;;;;;;;7.67;3.93;;;19.80;99.90;;;;;;5056780;28;20339;-79
2023/06/10 05:56:56;;;;;;;9.63;4.17;;;19.70;99.90;;;;;;5074932;28;20182;-80
2023/06/10 05:59:23;;;;;;;7.20;4.20;;;19.90;99.90;;;;;;5057007;28;20308;-79
2023/06/10 06:01:50;;;;;;;8.50;4.20;;;20.00;99.90;;;;;;5056903;28;20206;-79
2023/06/10 06:04:17;;;;;;;9.13;4.10;;;20.00;99.90;;;;;;5073464;28;20197;-79
2023/06/10 06:06:44;;;;;;;6.87;4.10;;;20.10;99.90;;;;;;5074508;28;20182;-79
2023/06/10 06:09:11;;;;;;;6.50;4.30;;;20.20;99.90;;;;;;5056442;28;20288;-80
2023/06/10 06:11:38;;;;;;;7.30;4.17;;;20.30;99.90;;;;;;5074231;28;20243;-80
2023/06/10 06:14:05;;;;;;;6.93;4.27;;;20.40;99.90;;;;;;5039396;28;20289;-80
2023/06/10 06:16:32;;;;;;;7.60;4.50;;;20.50;99.90;;;;;;5056732;28;20222;-81
2023/06/10 06:19:00;;;;;;;10.80;4.50;;;20.60;99.90;;;;;;5056568;28;20202;-82
2023/06/10 06:21:27;;;;;;;11.87;4.33;;;20.60;99.90;;;;;;5056590;28;20256;-82
2023/06/10 06:23:53;;;;;;;11.60;4.10;;;20.60;99.90;;;;;;5073434;28;20634;-81
2023/06/10 06:26:21;;;;;;;7.00;4.20;;;20.60;99.90;;;;;;5056856;28;20210;-81
2023/06/10 06:28:48;;;;;;;6.77;4.30;;;20.70;99.90;;;;;;5056737;28;20289;-81
2023/06/10 06:31:15;;;;;;;8.87;4.40;;;20.70;99.90;;;;;;5056323;28;20301;-81
2023/06/10 06:33:42;;;;;;;7.40;4.73;;;20.70;99.90;;;;;;5056487;28;20674;-81
2023/06/10 06:36:09;;;;;;;11.00;4.80;;;20.70;99.90;;;;;;5039933;28;20331;-79
2023/06/10 06:38:36;;;;;;;8.90;5.10;;;20.70;99.90;;;;;;5074474;28;20638;-81
2023/06/10 06:41:05;;;;;;;11.30;4.53;;;20.70;99.90;;;;;;5056198;28;20300;-81
2023/06/10 06:43:33;;;;;;;8.23;4.53;;;20.80;99.90;;;;;;5073317;28;20201;-83
2023/06/10 06:46:00;;;;;;;9.40;4.70;;;20.90;99.90;;;;;;5072424;28;20320;-84
2023/06/10 06:48:27;;;;;;;12.10;4.67;;;20.90;99.90;;;;;;5055573;28;20221;-84
2023/06/10 06:50:56;;;;;;;8.47;4.70;;;21.00;99.90;;;;;;5055519;28;20226;-81
2023/06/10 06:53:23;;;;;;;10.97;5.77;;;21.10;99.90;;;;;;5055314;28;20317;-82
2023/06/10 06:55:50;;;;;;;7.73;4.77;;;21.20;99.90;;;;;;4975117;28;20232;-81
2023/06/10 06:58:17;;;;;;;8.67;4.47;;;21.20;99.90;;;;;;4991715;28;20208;-82
2023/06/10 07:00:44;;;;;;;8.97;4.63;;;21.40;99.90;;;;;;4975443;28;20320;-84
2023/06/10 07:03:11;;;;;;;11.83;4.67;;;21.50;99.90;;;;;;4975301;28;20197;-83
2023/06/10 07:05:38;;;;;;;10.57;4.80;;;21.60;99.90;;;;;;4975329;28;20712;-83
2023/06/10 07:08:06;;;;;;;6.40;4.53;;;21.60;99.90;;;;;;4975207;28;20204;-83
2023/06/10 07:10:33;;;;;;;9.80;4.90;;;21.70;99.90;;;;;;4975405;28;20712;-81
2023/06/10 07:13:00;;;;;;;8.47;5.03;;;21.70;99.90;;;;;;4982523;28;20236;-81
2023/06/10 07:15:27;;;;;;;12.07;5.53;;;21.80;99.90;;;;;;5055178;28;20276;-82
2023/06/10 07:17:55;;;;;;;11.47;4.77;;;21.80;99.90;;;;;;5055440;28;20194;-83
2023/06/10 07:20:22;;;;;;;10.67;5.23;;;21.90;99.90;;;;;;5055012;28;20214;-82
2023/06/10 07:22:49;;;;;;;10.13;5.30;;;22.00;99.90;;;;;;5055073;28;20239;-82
2023/06/10 07:25:16;;;;;;;8.97;5.03;;;22.00;99.90;;;;;;5055243;28;20685;-81
2023/06/10 07:27:43;;;;;;;8.37;5.00;;;22.00;99.90;;;;;;5055181;28;20191;-81
2023/06/10 07:30:10;;;;;;;8.97;5.33;;;22.00;99.90;;;;;;5054763;28;20245;-81
2023/06/10 07:32:37;;;;;;;12.23;4.83;;;21.90;99.90;;;;;;5038461;28;20226;-83
2023/06/10 07:35:08;;;;;;;9.77;5.00;;;22.10;99.90;;;;;;5054663;28;20218;-84
2023/06/10 07:37:36;;;;;;;13.97;5.40;;;22.20;99.90;;;;;;5073254;28;20186;-84
2023/06/10 07:40:03;;;;;;;9.00;4.93;;;22.20;99.90;;;;;;5054734;28;20640;-84
2023/06/10 07:42:33;;;;;;;8.37;5.27;;;22.40;99.90;;;;;;5054777;28;20229;-87
2023/06/10 07:45:00;;;;;;;10.00;5.13;;;22.50;99.90;;;;;;5054837;28;20289;-80
2023/06/10 07:47:27;;;;;;;11.53;5.20;;;22.60;99.90;;;;;;5054756;28;20206;-80
2023/06/10 07:49:54;;;;;;;9.13;5.03;;;22.70;99.90;;;;;;5054532;28;20677;-79
2023/06/10 07:52:20;;;;;;;8.17;4.70;;;22.80;99.90;;;;;;5054849;28;20297;-80
2023/06/10 07:54:47;;;;;;;7.00;4.63;;;22.70;99.90;;;;;;5072703;28;20210;-80
2023/06/10 07:57:15;;;;;;;7.93;5.03;;;22.90;99.90;;;;;;5054653;28;20197;-80
2023/06/10 07:59:44;;;;;;;8.97;4.67;;;23.10;99.90;;;;;;5054066;28;20674;-80
2023/06/10 08:02:11;;;;;;;11.52;5.07;;;23.10;99.90;;;;;;5071439;28;20194;-80
2023/06/10 08:04:38;;;;;;;9.37;5.23;;;23.10;99.90;;;;;;5072350;28;20247;-80
2023/06/10 08:07:05;;;;;;;9.68;5.35;;;23.10;99.90;;;;;;5054613;28;20293;-80
2023/06/10 08:09:32;;;;;;;7.00;4.83;;;23.20;99.90;;;;;;5037426;28;20255;-80
2023/06/10 08:11:59;;;;;;;9.00;5.22;;;23.20;99.90;;;;;;5054482;28;20190;-79
2023/06/10 08:14:26;;;;;;;9.82;4.90;;;23.30;99.90;;;;;;5071996;28;20305;-80
2023/06/10 08:16:53;;;;;;;9.93;4.80;;;23.40;99.90;;;;;;5037899;28;20230;-80
2023/06/10 08:19:20;;;;;;;12.13;4.95;;;23.50;99.90;;;;;;5072073;28;20602;-79
2023/06/10 08:21:47;;;;;;;8.93;5.00;;;23.60;99.90;;;;;;5054354;28;20291;-80
2023/06/10 08:24:16;;;;;;;8.18;5.07;;;24.10;99.90;;;;;;5072329;28;20194;-87
2023/06/10 08:26:43;;;;;;;8.32;4.93;;;24.80;99.90;;;;;;5037993;28;20247;-86
2023/06/10 08:29:12;;;;;;;9.13;5.60;;;25.40;99.90;;;;;;5037608;28;20202;-86
2023/06/10 08:31:43;;;;;;;11.77;5.50;;;26.00;99.90;;;;;;5054435;28;20243;-85
2023/06/10 08:34:11;;;;;;;6.70;4.72;;;26.50;99.90;;;;;;5054809;28;20285;-85
2023/06/10 08:36:38;;;;;;;6.38;4.45;;;26.90;99.90;;;;;;5071190;28;20737;-86
2023/06/10 08:39:05;;;;;;;7.05;4.70;;;26.80;97.60;;;;;;5073545;28;20293;-86
2023/06/10 08:41:39;;;;;;;6.72;4.50;;;26.50;96.80;;;;;;5055164;28;20194;-86
2023/06/10 08:44:08;;;;;;;8.90;4.85;;;26.50;96.00;;;;;;5054878;28;20228;-86
2023/06/10 08:46:37;;;;;;;10.23;4.45;;;26.60;95.70;;;;;;5072437;28;20719;-87
2023/06/10 08:49:07;;;;;;;5.22;4.10;;;26.80;95.20;;;;;;5071901;28;20220;-86
2023/06/10 08:51:36;;;;;;;7.13;4.78;;;27.10;94.30;;;;;;5055395;28;20198;-85
2023/06/10 08:54:15;;;;;;;6.88;4.60;;;27.80;94.20;;;;;;5053714;28;20194;-84
2023/06/10 08:56:43;;;;;;;9.40;4.50;;;28.10;92.10;;;;;;5070913;28;20224;-86
2023/06/10 08:59:11;;;;;;;6.53;4.60;;;28.00;89.50;;;;;;5054026;28;20202;-86
2023/06/10 09:01:39;;;;;;;7.75;4.68;;;28.20;91.10;;;;;;5070813;28;20229;-86
2023/06/10 09:04:06;;;;;;;8.27;4.63;;;28.40;89.40;;;;;;5071942;28;20226;-84
2023/06/10 09:06:34;;;;;;;8.02;4.43;;;28.10;88.80;;;;;;5054643;28;20194;-85
2023/06/10 09:09:02;;;;;;;7.53;4.38;;;28.10;89.00;;;;;;5037481;28;20288;-85
2023/06/10 09:11:31;;;;;;;7.97;4.45;;;27.90;87.50;;;;;;5053945;28;20228;-85
2023/06/10 09:13:58;;;;;;;5.72;4.38;;;27.50;85.80;;;;;;5070181;28;20201;-84
2023/06/10 09:16:25;;;;;;;5.97;4.10;;;27.10;84.90;;;;;;5053462;28;20252;-84
2023/06/10 09:18:55;;;;;;;10.65;4.35;;;26.80;83.10;;;;;;5070322;28;20294;-84
2023/06/10 09:21:25;;;;;;;7.53;4.40;;;26.80;84.70;;;;;;5055442;28;20256;-85
2023/06/10 09:23:53;;;;;;;9.50;4.03;;;27.10;83.90;;;;;;5040824;28;20205;-85
2023/06/10 09:26:27;;;;;;;6.10;4.35;;;27.40;81.80;;;;;;5057802;28;20228;-85
2023/06/10 09:29:05;;;;;;;6.85;4.30;;;27.40;80.60;;;;;;5058871;28;20614;-85
2023/06/10 09:31:35;;;;;;;7.07;4.25;;;27.60;82.70;;;;;;5040768;28;20281;-84
2023/06/10 09:34:11;;;;;;;5.93;4.10;;;27.90;80.30;;;;;;5040961;28;20213;-85
2023/06/10 09:36:39;;;;;;;6.47;4.10;;;27.90;77.50;;;;;;5057132;28;20225;-85
2023/06/10 09:39:17;;;;;;;6.00;4.07;;;27.60;77.70;;;;;;5073461;28;20193;-84
2023/06/10 09:41:45;;;;;;;5.75;4.07;;;27.80;78.00;;;;;;5056934;28;20205;-84
2023/06/10 09:44:17;;;;;;;7.15;4.30;;;28.10;76.50;;;;;;5074932;28;20205;-85
2023/06/10 09:46:50;;;;;;;6.40;4.10;;;28.40;73.50;;;;;;5074673;28;20265;-85
2023/06/10 09:49:17;;;;;;;6.28;4.05;;;28.70;75.70;;;;;;5073478;28;20174;-85
2023/06/10 09:51:54;;;;;;;8.23;4.13;;;29.00;75.40;;;;;;5056547;28;20706;-84
2023/06/10 09:54:22;;;;;;;5.43;3.72;;;29.10;74.60;;;;;;5056429;28;20280;-86
2023/06/10 09:56:51;;;;;;;6.53;4.38;;;29.20;71.90;;;;;;5072893;28;20253;-85
2023/06/10 09:59:34;;;;;;;8.13;4.30;;;29.00;71.00;;;;;;5056481;28;20194;-83
2023/06/10 10:02:01;;;;;;;10.07;4.63;;;29.10;71.30;;;;;;5056483;28;20591;-85
2023/06/10 10:04:28;;;;;;;8.05;4.47;;;28.70;71.40;;;;;;5074093;28;20206;-84
2023/06/10 10:06:55;;;;;;;5.88;4.10;;;28.70;72.10;;;;;;5074404;28;20217;-85
2023/06/10 10:09:22;;;;;;;5.72;3.80;;;28.80;70.90;;;;;;5039722;28;20259;-85
2023/06/10 10:11:50;;;;;;;6.28;4.18;;;28.40;71.20;;;;;;5040162;28;20226;-85
2023/06/10 10:14:19;;;;;;;7.97;4.15;;;28.60;70.50;;;;;;5073728;28;20183;-84
2023/06/10 10:16:48;;;;;;;6.97;4.10;;;28.60;70.80;;;;;;5056076;28;20202;-85
2023/06/10 10:19:40;;;;;;;6.40;4.00;;;28.80;68.50;;;;;;5056473;28;20190;-84
2023/06/10 10:22:39;;;;;;;9.88;4.20;;;29.40;68.00;;;;;;5056386;28;20312;-82
2023/06/10 10:25:20;;;;;;;5.47;3.88;;;29.50;66.70;;;;;;5053130;28;20218;-85
2023/06/10 10:28:10;;;;;;;7.07;3.97;;;29.50;67.20;;;;;;5073537;28;20178;-83
2023/06/10 10:30:44;;;;;;;5.63;3.75;;;29.60;64.10;;;;;;5073972;28;20610;-85
2023/06/10 10:33:28;;;;;;;7.30;3.70;;;29.50;61.60;;;;;;5055689;28;20198;-85
2023/06/10 10:35:57;;;;;;;7.07;3.83;;;29.20;62.70;;;;;;5073306;28;20226;-85
2023/06/10 10:38:25;;;;;;;4.90;3.80;;;29.50;65.30;;;;;;5055872;28;20265;-83
2023/06/10 10:40:53;;;;;;;6.28;3.97;;;29.90;63.90;;;;;;5073297;28;20709;-85
2023/06/10 10:43:20;;;;;;;7.45;4.05;;;29.80;62.40;;;;;;5071839;28;20753;-83
2023/06/10 10:45:58;;;;;;;5.50;4.05;;;29.60;62.30;;;;;;5055881;28;20685;-85
2023/06/10 10:48:32;;;;;;;5.70;3.67;;;29.50;62.10;;;;;;5059183;28;20174;-83
2023/06/10 10:50:59;;;;;;;4.35;3.55;;;29.90;63.30;;;;;;5058908;28;20214;-85
2023/06/10 10:53:26;;;;;;;5.80;3.92;;;30.60;60.00;;;;;;5076282;28;20190;-85
2023/06/10 10:56:14;;;;;;;6.63;3.90;;;31.10;60.20;;;;;;5058849;28;20256;-85
2023/06/10 10:58:41;;;;;;;4.78;3.70;;;31.90;60.60;;;;;;5042549;28;20209;-85
2023/06/10 11:01:15;;;;;;;5.07;3.70;;;31.90;58.40;;;;;;5075290;28;20210;-85
2023/06/10 11:03:47;;;;;;;5.88;3.40;;;32.30;58.30;;;;;;5055509;28;20402;-84
2023/06/10 11:06:15;;;;;;;8.00;3.90;;;32.00;55.20;;;;;;5055295;28;20226;-85
2023/06/10 11:08:43;;;;;;;5.30;3.63;;;32.40;54.70;;;;;;5039079;28;20226;-85
2023/06/10 11:11:26;;;;;;;4.63;3.45;;;31.80;53.40;;;;;;5071662;28;20241;-86
2023/06/10 11:14:04;;;;;;;6.50;3.55;;;31.50;56.50;;;;;;5054807;28;20190;-83
2023/06/10 11:16:41;;;;;;;6.57;3.97;;;31.90;55.20;;;;;;5054925;28;20272;-83
2023/06/10 11:19:09;;;;;;;4.72;3.50;;;32.00;56.00;;;;;;5054643;28;20597;-84
2023/06/10 11:22:02;;;;;;;5.88;3.53;;;32.10;54.50;;;;;;5071552;28;20205;-84
2023/06/10 11:24:30;;;;;;;4.22;3.50;;;31.70;54.70;;;;;;5071461;28;20276;-83
2023/06/10 11:27:19;;;;;;;4.80;3.80;;;31.40;55.60;;;;;;5054732;28;20225;-86
2023/06/10 11:29:57;;;;;;;5.40;3.80;;;31.00;56.70;;;;;;5072417;28;20693;-87
2023/06/10 11:32:30;;;;;;;6.28;4.13;;;30.70;58.90;;;;;;5071523;28;20395;-83
2023/06/10 11:34:58;;;;;;;5.70;4.30;;;30.80;58.90;;;;;;5072281;28;20214;-84
2023/06/10 11:37:25;;;;;;;4.93;3.90;;;31.40;59.00;;;;;;5072506;28;20237;-84
2023/06/10 11:39:55;;;;;;;6.68;4.38;;;31.80;58.20;;;;;;5054186;28;20210;-85
2023/06/10 11:42:22;;;;;;;7.80;4.32;;;32.00;58.10;;;;;;5070911;28;20201;-84
2023/06/10 11:44:51;;;;;;;6.53;4.40;;;32.00;59.10;;;;;;5037393;28;20217;-78
2023/06/10 11:47:18;;;;;;;7.57;4.80;;;32.30;58.90;;;;;;5071431;28;20208;-91
2023/06/10 11:49:46;;;;;;;5.93;4.20;;;32.60;58.40;;;;;;5073138;28;20210;-88
2023/06/10 11:52:25;;;;;;;6.40;4.30;;;33.10;57.40;;;;;;5073086;28;20171;-85
2023/06/10 11:54:56;;;;;;;6.68;4.35;;;33.60;56.40;;;;;;5075028;28;20292;-88
2023/06/10 11:57:23;;;;;;;5.60;4.60;;;33.80;57.20;;;;;;5078219;28;20226;-89
2023/06/10 11:59:50;;;;;;;5.82;4.70;;;33.20;57.30;;;;;;5060811;28;20250;-85
2023/06/10 12:02:17;;;;;;;8.73;4.88;;;33.30;58.00;;;;;;5044788;28;20224;-87
2023/06/10 12:04:45;;;;;;;8.27;5.00;;;33.50;58.10;;;;;;5076696;28;20264;-87
2023/06/10 12:07:22;;;;;;;6.72;4.90;;;33.30;58.10;;;;;;5060388;28;20236;-89
2023/06/10 12:09:59;;;;;;;8.27;4.60;;;33.30;57.90;;;;;;5060928;28;20214;-87
2023/06/10 12:12:44;;;;;;;6.95;4.88;;;33.20;58.80;;;;;;5073384;28;20198;-84
2023/06/10 12:15:24;;;;;;;8.35;4.80;;;33.50;59.40;;;;;;5037520;28;20234;-83
2023/06/10 12:17:51;;;;;;;6.22;4.65;;;33.60;58.60;;;;;;5039514;28;20229;-88
2023/06/10 12:20:30;;;;;;;8.50;4.70;;;33.90;58.00;;;;;;5055802;28;20214;-86
2023/06/10 12:22:57;;;;;;;6.22;4.82;;;33.90;56.20;;;;;;5054525;28;20194;-86
2023/06/10 12:25:28;;;;;;;6.03;5.05;;;34.40;57.10;;;;;;5054957;28;20214;-88
2023/06/10 12:27:58;;;;;;;6.40;4.97;;;34.50;57.60;;;;;;5055353;28;20190;-85
2023/06/10 12:30:27;;;;;;;7.93;5.55;;;34.70;56.90;;;;;;5054873;28;20225;-88
2023/06/10 12:32:55;;;;;;;6.53;4.80;;;34.60;56.30;;;;;;5038027;28;20221;-87
2023/06/10 12:35:24;;;;;;;7.88;5.20;;;34.80;56.40;;;;;;5054535;28;20686;-87
2023/06/10 12:38:01;;;;;;;5.82;4.78;;;34.80;56.30;;;;;;5055077;28;20235;-87
2023/06/10 12:40:38;;;;;;;7.25;5.55;;;34.80;56.90;;;;;;5072435;28;20213;-87
2023/06/10 12:43:06;;;;;;;6.47;4.80;;;34.90;56.30;;;;;;5072093;28;20235;-86
2023/06/10 12:45:35;;;;;;;15.00;5.40;;;34.40;56.90;;;;;;5040292;28;20245;-83
2023/06/10 12:48:06;;;;;;;6.90;4.95;;;34.00;57.50;;;;;;5063906;28;20183;-86
2023/06/10 12:50:33;;;;;;;6.57;4.95;;;34.20;57.30;;;;;;5054549;28;20221;-87
2023/06/10 12:53:01;;;;;;;6.07;5.15;;;34.50;56.30;;;;;;5054400;28;20198;-88